createdAt,value
2023-08-23T00:01:24.244Z,25.69
2023-08-23T00:03:53.028Z,25.65
2023-08-23T00:06:20.266Z,25.60
2023-08-23T00:08:47.215Z,25.68
2023-08-23T00:11:14.143Z,25.70
2023-08-23T00:13:41.077Z,25.64
2023-08-23T00:16:08.001Z,25.64
2023-08-23T00:18:34.896Z,25.53
2023-08-23T00:21:01.808Z,25.54
2023-08-23T00:23:28.650Z,25.48
2023-08-23T00:25:55.528Z,25.48
2023-08-23T00:28:22.425Z,25.24
2023-08-23T00:30:58.584Z,25.17
2023-08-23T00:33:25.547Z,25.41
2023-08-23T00:35:52.477Z,25.64
2023-08-23T00:38:19.377Z,25.77
2023-08-23T00:40:46.255Z,25.94
2023-08-23T00:43:13.091Z,25.88
2023-08-23T00:45:42.723Z,25.64
2023-08-23T00:48:12.848Z,25.74
2023-08-23T00:50:41.889Z,25.81
2023-08-23T00:53:09.783Z,25.54
2023-08-23T00:55:36.992Z,25.61
2023-08-23T00:58:05.251Z,25.30
2023-08-23T01:00:33.435Z,25.23
2023-08-23T01:03:01.147Z,24.96
2023-08-23T01:06:05.097Z,25.41
2023-08-23T01:09:17.745Z,25.57
2023-08-23T01:12:08.622Z,24.85
2023-08-23T01:14:59.682Z,24.95
2023-08-23T01:17:28.093Z,25.22
2023-08-23T01:19:57.349Z,25.26
2023-08-23T01:22:25.528Z,25.10
2023-08-23T01:24:52.874Z,24.97
2023-08-23T01:27:20.432Z,25.27
2023-08-23T01:29:48.333Z,25.30
2023-08-23T01:32:42.962Z,25.26
2023-08-23T01:35:20.918Z,25.10
2023-08-23T01:37:54.748Z,25.20
2023-08-23T01:40:22.677Z,25.34
2023-08-23T01:42:49.890Z,25.30
2023-08-23T01:45:16.967Z,25.20
2023-08-23T01:47:43.825Z,24.99
2023-08-23T01:50:11.043Z,25.23
2023-08-23T01:52:37.891Z,25.36
2023-08-23T01:55:05.278Z,25.44
2023-08-23T01:57:32.156Z,25.48
2023-08-23T01:59:59.031Z,25.42
2023-08-23T02:02:25.933Z,25.48
2023-08-23T02:04:52.827Z,25.48
2023-08-23T02:07:19.667Z,25.46
2023-08-23T02:09:46.598Z,25.42
2023-08-23T02:12:13.472Z,25.39
2023-08-23T02:14:40.326Z,25.30
2023-08-23T02:17:07.449Z,25.22
2023-08-23T02:19:34.333Z,25.32
2023-08-23T02:22:01.209Z,25.40
2023-08-23T02:24:28.113Z,25.39
2023-08-23T02:26:54.975Z,25.38
2023-08-23T02:29:21.913Z,25.41
2023-08-23T02:31:48.765Z,25.42
2023-08-23T02:34:15.659Z,25.46
2023-08-23T02:36:42.541Z,25.25
2023-08-23T02:39:10.697Z,25.36
2023-08-23T02:41:37.518Z,25.20
2023-08-23T02:44:04.593Z,25.21
2023-08-23T02:46:31.524Z,24.86
2023-08-23T02:48:58.387Z,25.15
2023-08-23T02:51:25.246Z,25.21
2023-08-23T02:53:52.222Z,25.20
2023-08-23T02:56:19.100Z,25.13
2023-08-23T02:58:46.011Z,25.12
2023-08-23T03:01:12.892Z,24.96
2023-08-23T03:03:39.873Z,25.03
2023-08-23T03:06:06.725Z,25.09
2023-08-23T03:08:33.563Z,25.16
2023-08-23T03:11:08.473Z,25.15
2023-08-23T03:13:35.900Z,24.87
2023-08-23T03:16:03.145Z,24.98
2023-08-23T03:18:30.370Z,25.12
2023-08-23T03:20:57.257Z,25.08
2023-08-23T03:23:24.180Z,25.14
2023-08-23T03:25:51.592Z,25.16
2023-08-23T03:28:18.530Z,25.22
2023-08-23T03:30:45.762Z,25.27
2023-08-23T03:33:12.768Z,25.31
2023-08-23T03:35:39.664Z,25.20
2023-08-23T03:38:06.799Z,25.12
2023-08-23T03:40:39.373Z,25.13
2023-08-23T03:43:06.758Z,25.10
2023-08-23T03:45:34.799Z,25.16
2023-08-23T03:48:01.820Z,25.10
2023-08-23T03:50:28.794Z,24.73
2023-08-23T03:52:55.692Z,24.75
2023-08-23T03:55:22.577Z,24.65
2023-08-23T03:57:52.031Z,24.61
2023-08-23T04:00:19.140Z,24.68
2023-08-23T04:02:46.688Z,24.82
2023-08-23T04:05:13.787Z,24.44
2023-08-23T04:07:41.918Z,24.73
2023-08-23T04:10:09.343Z,24.90
2023-08-23T04:12:36.311Z,24.90
2023-08-23T04:15:04.202Z,24.38
2023-08-23T04:17:31.234Z,24.46
2023-08-23T04:19:58.181Z,24.70
2023-08-23T04:22:25.089Z,24.84
2023-08-23T04:24:52.509Z,24.85
2023-08-23T04:27:19.490Z,24.77
2023-08-23T04:29:46.391Z,24.86
2023-08-23T04:32:14.139Z,24.92
2023-08-23T04:34:41.329Z,24.93
2023-08-23T04:37:08.515Z,24.72
2023-08-23T04:39:35.564Z,24.81
2023-08-23T04:42:02.810Z,24.62
2023-08-23T04:44:30.480Z,24.47
2023-08-23T04:46:59.074Z,24.32
2023-08-23T04:49:26.030Z,24.60
2023-08-23T04:51:53.014Z,24.43
2023-08-23T04:54:19.871Z,24.50
2023-08-23T04:56:46.814Z,24.45
2023-08-23T04:59:13.707Z,23.95
2023-08-23T05:01:40.776Z,24.00
2023-08-23T05:04:08.679Z,24.22
2023-08-23T05:06:36.445Z,24.24
2023-08-23T05:09:05.856Z,24.20
2023-08-23T05:11:33.285Z,24.26
2023-08-23T05:14:00.181Z,24.18
2023-08-23T05:16:27.130Z,24.32
2023-08-23T05:18:54.089Z,24.12
2023-08-23T05:21:20.965Z,24.52
2023-08-23T05:23:47.899Z,24.56
2023-08-23T05:26:14.798Z,24.68
2023-08-23T05:28:41.619Z,24.75
2023-08-23T05:31:08.548Z,24.86
2023-08-23T05:33:35.490Z,24.84
2023-08-23T05:36:02.393Z,25.01
2023-08-23T05:38:30.387Z,25.09
2023-08-23T05:40:57.337Z,25.06
2023-08-23T05:43:24.487Z,25.27
2023-08-23T05:45:55.955Z,25.44
2023-08-23T05:48:23.386Z,25.17
2023-08-23T05:50:50.499Z,25.39
2023-08-23T05:53:20.809Z,25.50
2023-08-23T05:55:49.601Z,25.68
2023-08-23T05:58:19.133Z,25.91
2023-08-23T06:00:48.050Z,26.10
2023-08-23T06:03:18.674Z,26.18
2023-08-23T06:05:45.982Z,26.34
2023-08-23T06:08:12.939Z,26.56
2023-08-23T06:10:39.924Z,26.80
2023-08-23T06:13:06.811Z,27.01
2023-08-23T06:15:33.722Z,27.24
2023-08-23T06:18:00.756Z,27.38
2023-08-23T06:20:29.947Z,27.45
2023-08-23T06:22:58.943Z,27.62
2023-08-23T06:25:26.118Z,27.73
2023-08-23T06:27:53.066Z,27.95
2023-08-23T06:30:20.055Z,28.12
2023-08-23T06:32:50.419Z,28.26
2023-08-23T06:35:18.713Z,28.23
2023-08-23T06:37:46.512Z,27.99
2023-08-23T06:40:15.303Z,28.42
2023-08-23T06:42:42.243Z,28.43
2023-08-23T06:45:10.727Z,28.07
2023-08-23T06:47:38.714Z,28.02
2023-08-23T06:50:10.534Z,28.24
2023-08-23T06:52:39.929Z,28.32
2023-08-23T06:55:07.721Z,28.47
2023-08-23T06:57:34.828Z,28.09
2023-08-23T07:00:01.861Z,27.55
2023-08-23T07:02:28.804Z,27.74
2023-08-23T07:04:55.783Z,27.97
2023-08-23T07:07:23.255Z,28.13
2023-08-23T07:09:51.219Z,27.97
2023-08-23T07:12:18.305Z,27.87
2023-08-23T07:14:48.034Z,28.28
2023-08-23T07:17:15.158Z,28.10
2023-08-23T07:19:42.131Z,28.30
2023-08-23T07:22:09.122Z,28.41
2023-08-23T07:24:36.012Z,28.32
2023-08-23T07:27:02.959Z,28.34
2023-08-23T07:29:30.588Z,28.74
2023-08-23T07:31:58.586Z,28.99
2023-08-23T07:34:26.830Z,29.39
2023-08-23T07:36:53.793Z,29.53
2023-08-23T07:39:21.151Z,29.49
2023-08-23T07:41:48.033Z,29.63
2023-08-23T07:44:14.927Z,29.23
2023-08-23T07:46:41.799Z,29.41
2023-08-23T07:49:08.731Z,29.95
2023-08-23T07:51:35.620Z,30.63
2023-08-23T07:54:04.173Z,30.75
2023-08-23T07:56:31.037Z,30.43
2023-08-23T07:58:58.262Z,30.00
2023-08-23T08:01:25.403Z,30.63
2023-08-23T08:03:52.843Z,31.06
2023-08-23T08:06:20.331Z,31.68
2023-08-23T08:08:47.232Z,32.03
2023-08-23T08:11:15.622Z,32.05
2023-08-23T08:13:42.883Z,32.27
2023-08-23T08:16:15.397Z,32.38
2023-08-23T08:18:44.220Z,32.38
2023-08-23T08:21:11.598Z,32.29
2023-08-23T08:23:38.705Z,32.52
2023-08-23T08:26:07.906Z,32.48
2023-08-23T08:28:35.054Z,32.56
2023-08-23T08:31:01.991Z,31.90
2023-08-23T08:33:28.889Z,32.26
2023-08-23T08:35:55.730Z,32.77
2023-08-23T08:38:23.648Z,32.88
2023-08-23T08:40:51.395Z,33.12
2023-08-23T08:43:19.417Z,32.45
2023-08-23T08:45:47.185Z,32.96
2023-08-23T08:48:14.274Z,33.00
2023-08-23T08:50:44.009Z,32.86
2023-08-23T08:53:18.308Z,33.08
2023-08-23T08:55:49.833Z,33.59
2023-08-23T08:58:20.953Z,33.07
2023-08-23T09:00:53.842Z,32.91
2023-08-23T09:03:21.488Z,32.40
2023-08-23T09:05:51.884Z,32.44
2023-08-23T09:08:18.981Z,32.09
2023-08-23T09:10:46.139Z,31.93
2023-08-23T09:13:13.288Z,31.94
2023-08-23T09:15:40.467Z,33.01
2023-08-23T09:18:07.565Z,33.55
2023-08-23T09:20:36.052Z,33.39
2023-08-23T09:23:02.950Z,33.13
2023-08-23T09:25:29.964Z,33.47
2023-08-23T09:27:57.299Z,33.31
2023-08-23T09:30:24.688Z,34.19
2023-08-23T09:32:51.591Z,34.81
2023-08-23T09:35:19.345Z,34.57
2023-08-23T09:37:50.392Z,33.83
2023-08-23T09:40:26.389Z,33.26
2023-08-23T09:42:57.149Z,33.52
2023-08-23T09:45:26.728Z,33.90
2023-08-23T09:48:00.600Z,34.30
2023-08-23T09:50:29.530Z,34.06
2023-08-23T09:53:05.658Z,34.53
2023-08-23T09:55:35.817Z,34.02
2023-08-23T09:58:03.782Z,33.87
2023-08-23T10:00:31.198Z,34.56
2023-08-23T10:02:59.042Z,34.48
2023-08-23T10:05:28.145Z,35.15
2023-08-23T10:07:57.337Z,34.09
2023-08-23T10:10:25.391Z,35.43
2023-08-23T10:12:56.840Z,35.23
2023-08-23T10:15:33.066Z,33.91
2023-08-23T10:18:02.170Z,34.49
2023-08-23T10:20:29.260Z,34.39
2023-08-23T10:22:59.418Z,34.61
2023-08-23T10:25:26.843Z,35.21
2023-08-23T10:27:57.149Z,34.57
2023-08-23T10:30:29.987Z,35.06
2023-08-23T10:33:09.912Z,34.19
2023-08-23T10:35:38.733Z,35.21
2023-08-23T10:38:10.088Z,34.65
2023-08-23T10:40:39.669Z,34.16
2023-08-23T10:43:16.000Z,33.57
2023-08-23T10:45:49.626Z,33.65
2023-08-23T10:48:20.130Z,34.12
2023-08-23T10:50:48.680Z,34.14
2023-08-23T10:53:17.915Z,35.59
2023-08-23T10:55:46.099Z,36.03
2023-08-23T10:58:14.815Z,35.49
2023-08-23T11:00:51.871Z,35.57
2023-08-23T11:03:20.977Z,35.69
2023-08-23T11:05:48.499Z,35.43
2023-08-23T11:08:16.954Z,34.70
2023-08-23T11:10:44.997Z,34.67
2023-08-23T11:13:13.130Z,36.19
2023-08-23T11:15:42.259Z,35.55
2023-08-23T11:18:09.202Z,36.21
2023-08-23T11:20:36.297Z,36.47
2023-08-23T11:23:04.952Z,37.07
2023-08-23T11:25:33.090Z,36.78
2023-08-23T11:28:00.516Z,37.20
2023-08-23T11:30:28.295Z,37.52
2023-08-23T11:32:58.062Z,37.90
2023-08-23T11:35:25.112Z,38.66
2023-08-23T11:37:54.705Z,37.83
2023-08-23T11:40:24.214Z,38.02
2023-08-23T11:43:08.032Z,38.24
2023-08-23T11:45:43.630Z,37.87
2023-08-23T11:48:12.092Z,37.20
2023-08-23T11:50:40.194Z,37.51
2023-08-23T11:53:09.901Z,36.23
2023-08-23T11:55:37.449Z,36.18
2023-08-23T11:58:05.357Z,36.47
2023-08-23T12:00:32.503Z,36.28
2023-08-23T12:02:59.380Z,37.82
2023-08-23T12:05:26.624Z,38.13
2023-08-23T12:07:54.154Z,37.82
2023-08-23T12:10:21.132Z,38.01
2023-08-23T12:12:48.339Z,38.27
2023-08-23T12:15:15.190Z,38.38
2023-08-23T12:17:42.035Z,37.82
2023-08-23T12:20:11.683Z,39.14
2023-08-23T12:22:45.404Z,39.89
2023-08-23T12:25:12.289Z,38.32
2023-08-23T12:27:39.274Z,37.57
2023-08-23T12:30:07.419Z,37.32
2023-08-23T12:32:34.340Z,36.99
2023-08-23T12:35:04.857Z,37.12
2023-08-23T12:37:31.818Z,37.13
2023-08-23T12:39:58.662Z,36.63
2023-08-23T12:42:25.529Z,36.21
2023-08-23T12:44:52.391Z,37.73
2023-08-23T12:47:19.309Z,38.73
2023-08-23T12:49:46.224Z,39.02
2023-08-23T12:52:14.156Z,38.28
2023-08-23T12:54:41.071Z,38.06
2023-08-23T12:57:08.111Z,38.51
2023-08-23T12:59:34.976Z,38.96
2023-08-23T13:02:01.927Z,39.25
2023-08-23T13:04:28.853Z,40.16
2023-08-23T13:06:55.692Z,40.59
2023-08-23T13:09:23.584Z,41.16
2023-08-23T13:11:50.471Z,39.59
2023-08-23T13:14:18.358Z,38.45
2023-08-23T13:16:45.215Z,37.57
2023-08-23T13:19:12.063Z,37.35
2023-08-23T13:21:39.188Z,37.15
2023-08-23T13:24:06.294Z,37.49
2023-08-23T13:26:35.129Z,38.16
2023-08-23T13:29:02.001Z,38.61
2023-08-23T13:31:29.248Z,37.12
2023-08-23T13:33:56.192Z,38.01
2023-08-23T13:36:23.044Z,38.27
2023-08-23T13:38:49.908Z,38.88
2023-08-23T13:41:16.802Z,37.87
2023-08-23T13:43:43.651Z,38.35
2023-08-23T13:46:11.187Z,37.52
2023-08-23T13:48:38.680Z,37.15
2023-08-23T13:51:06.611Z,36.79
2023-08-23T13:53:33.482Z,37.39
2023-08-23T13:56:00.369Z,38.32
2023-08-23T13:58:27.275Z,39.04
2023-08-23T14:00:54.253Z,39.38
2023-08-23T14:03:21.150Z,38.76
2023-08-23T14:05:48.225Z,38.90
2023-08-23T14:08:15.106Z,37.65
2023-08-23T14:10:41.957Z,38.83
2023-08-23T14:13:08.917Z,39.20
2023-08-23T14:15:35.844Z,40.08
2023-08-23T14:18:02.752Z,40.54
2023-08-23T14:20:29.631Z,39.79
2023-08-23T14:22:56.491Z,39.20
2023-08-23T14:25:23.338Z,38.63
2023-08-23T14:27:50.549Z,39.37
2023-08-23T14:30:17.631Z,40.20
2023-08-23T14:32:51.686Z,41.94
2023-08-23T14:35:19.437Z,42.59
2023-08-23T14:37:47.443Z,43.75
2023-08-23T14:40:15.391Z,43.38
2023-08-23T14:42:43.410Z,42.64
2023-08-23T14:45:11.308Z,41.94
2023-08-23T14:47:38.447Z,42.15
2023-08-23T14:50:06.178Z,43.48
2023-08-23T14:52:34.088Z,41.42
2023-08-23T14:55:09.947Z,42.75
2023-08-23T14:57:37.700Z,43.00
2023-08-23T15:00:05.912Z,42.29
2023-08-23T15:02:35.159Z,42.62
2023-08-23T15:05:03.480Z,41.86
2023-08-23T15:07:30.661Z,44.12
2023-08-23T15:09:57.573Z,43.65
2023-08-23T15:12:24.544Z,43.44
2023-08-23T15:14:51.482Z,43.53
2023-08-23T15:17:18.902Z,42.97
2023-08-23T15:19:47.837Z,44.15
2023-08-23T15:22:14.840Z,44.51
2023-08-23T15:24:41.706Z,43.25
2023-08-23T15:27:09.089Z,43.42
2023-08-23T15:29:40.508Z,42.06
2023-08-23T15:32:12.218Z,42.33
2023-08-23T15:34:53.321Z,41.22
2023-08-23T15:37:21.768Z,40.39
2023-08-23T15:39:50.249Z,38.24
2023-08-23T15:42:17.347Z,38.19
2023-08-23T15:44:44.828Z,37.03
2023-08-23T15:47:11.823Z,35.83
2023-08-23T15:49:38.675Z,36.17
2023-08-23T15:52:05.884Z,35.98
2023-08-23T15:54:33.045Z,35.48
2023-08-23T15:57:00.000Z,35.04
2023-08-23T15:59:28.876Z,34.93
2023-08-23T16:01:56.409Z,34.79
2023-08-23T16:04:24.946Z,34.18
2023-08-23T16:06:56.289Z,34.16
2023-08-23T16:09:23.911Z,34.23
2023-08-23T16:11:51.064Z,34.30
2023-08-23T16:14:18.369Z,34.16
2023-08-23T16:16:45.241Z,34.14
2023-08-23T16:19:12.573Z,33.89
2023-08-23T16:21:39.742Z,33.84
2023-08-23T16:24:06.684Z,33.82
2023-08-23T16:26:33.542Z,33.51
2023-08-23T16:29:00.999Z,33.85
2023-08-23T16:31:28.298Z,33.52
2023-08-23T16:33:55.165Z,34.10
2023-08-23T16:36:22.061Z,34.54
2023-08-23T16:38:51.228Z,34.30
2023-08-23T16:41:18.187Z,34.06
2023-08-23T16:43:45.063Z,34.11
2023-08-23T16:46:12.118Z,34.09
2023-08-23T16:48:39.055Z,33.98
2023-08-23T16:51:06.407Z,33.66
2023-08-23T16:53:33.334Z,33.61
2023-08-23T16:56:00.188Z,33.41
2023-08-23T16:58:29.067Z,33.03
2023-08-23T17:00:57.903Z,32.79
2023-08-23T17:03:24.819Z,32.88
2023-08-23T17:05:51.994Z,32.60
2023-08-23T17:08:18.892Z,32.57
2023-08-23T17:10:45.817Z,32.49
2023-08-23T17:13:12.708Z,32.37
2023-08-23T17:15:39.572Z,32.09
2023-08-23T17:18:06.618Z,32.10
2023-08-23T17:20:33.550Z,32.07
2023-08-23T17:23:01.698Z,31.92
2023-08-23T17:25:29.036Z,31.78
2023-08-23T17:28:01.186Z,31.66
2023-08-23T17:30:29.815Z,31.59
2023-08-23T17:32:56.689Z,31.39
2023-08-23T17:35:23.581Z,31.12
2023-08-23T17:37:50.672Z,30.99
2023-08-23T17:40:17.637Z,30.94
2023-08-23T17:42:45.227Z,30.98
2023-08-23T17:45:12.319Z,30.65
2023-08-23T17:47:39.449Z,30.64
2023-08-23T17:50:06.786Z,30.50
2023-08-23T17:52:33.803Z,30.21
2023-08-23T17:55:00.730Z,30.07
2023-08-23T17:57:27.803Z,30.10
2023-08-23T17:59:54.645Z,29.99
2023-08-23T18:02:21.575Z,29.94
2023-08-23T18:04:48.478Z,29.90
2023-08-23T18:07:15.359Z,29.89
2023-08-23T18:09:44.255Z,29.77
2023-08-23T18:12:11.507Z,29.68
2023-08-23T18:14:38.370Z,29.68
2023-08-23T18:17:05.467Z,29.49
2023-08-23T18:19:32.331Z,29.56
2023-08-23T18:21:59.210Z,29.45
2023-08-23T18:24:26.092Z,29.35
2023-08-23T18:26:52.988Z,29.19
2023-08-23T18:29:19.837Z,29.03
2023-08-23T18:31:46.662Z,28.96
2023-08-23T18:34:13.556Z,28.87
2023-08-23T18:36:40.439Z,28.75
2023-08-23T18:39:07.293Z,28.53
2023-08-23T18:41:34.197Z,28.59
2023-08-23T18:44:01.145Z,28.63
2023-08-23T18:46:28.849Z,28.37
2023-08-23T18:48:55.713Z,28.31
2023-08-23T18:51:22.633Z,28.41
2023-08-23T18:53:49.491Z,28.37
2023-08-23T18:56:16.468Z,28.19
2023-08-23T18:58:43.350Z,27.98
2023-08-23T19:01:10.240Z,27.75
2023-08-23T19:03:38.445Z,27.63
2023-08-23T19:06:05.498Z,27.70
2023-08-23T19:08:32.376Z,27.80
2023-08-23T19:11:00.012Z,27.83
2023-08-23T19:13:27.006Z,27.88
2023-08-23T19:15:53.867Z,27.88
2023-08-23T19:18:21.523Z,27.87
2023-08-23T19:20:51.775Z,27.80
2023-08-23T19:23:18.728Z,27.77
2023-08-23T19:25:45.800Z,27.64
2023-08-23T19:28:12.821Z,27.60
2023-08-23T19:30:39.719Z,27.62
2023-08-23T19:33:06.756Z,27.64
2023-08-23T19:35:45.692Z,27.66
2023-08-23T19:38:13.338Z,27.70
2023-08-23T19:40:40.253Z,27.82
2023-08-23T19:43:07.634Z,27.92
2023-08-23T19:45:34.642Z,27.93
2023-08-23T19:48:10.972Z,27.98
2023-08-23T19:50:49.238Z,27.98
2023-08-23T19:53:16.304Z,27.88
2023-08-23T19:55:43.219Z,27.84
2023-08-23T19:58:10.068Z,27.84
2023-08-23T20:00:36.994Z,27.84
2023-08-23T20:03:04.457Z,27.84
2023-08-23T20:05:31.437Z,27.78
2023-08-23T20:08:01.303Z,27.66
2023-08-23T20:10:29.123Z,27.62
2023-08-23T20:12:56.061Z,27.53
2023-08-23T20:15:22.994Z,27.53
2023-08-23T20:17:50.240Z,27.46
2023-08-23T20:20:17.501Z,27.42
2023-08-23T20:22:44.317Z,27.43
2023-08-23T20:25:11.321Z,27.42
2023-08-23T20:27:38.143Z,27.34
2023-08-23T20:30:06.161Z,27.28
2023-08-23T20:32:33.057Z,27.20
2023-08-23T20:34:59.946Z,27.25
2023-08-23T20:37:27.346Z,27.26
2023-08-23T20:39:54.294Z,27.25
2023-08-23T20:42:23.007Z,27.31
2023-08-23T20:44:49.883Z,27.33
2023-08-23T20:47:16.705Z,27.33
2023-08-23T20:49:43.524Z,27.36
2023-08-23T20:52:10.418Z,27.34
2023-08-23T20:54:37.335Z,27.32
2023-08-23T20:57:04.320Z,27.32
2023-08-23T20:59:31.145Z,27.28
2023-08-23T21:01:58.033Z,27.29
2023-08-23T21:04:26.531Z,27.30
2023-08-23T21:06:53.533Z,27.28
2023-08-23T21:09:20.367Z,27.21
2023-08-23T21:11:47.194Z,27.20
2023-08-23T21:14:14.057Z,27.17
2023-08-23T21:16:41.112Z,27.23
2023-08-23T21:19:08.197Z,27.20
2023-08-23T21:21:35.070Z,27.11
2023-08-23T21:24:02.085Z,27.02
2023-08-23T21:26:29.265Z,27.00
2023-08-23T21:28:56.177Z,26.88
2023-08-23T21:31:23.207Z,26.89
2023-08-23T21:33:50.258Z,26.83
2023-08-23T21:36:18.112Z,26.81
2023-08-23T21:38:45.809Z,26.79
2023-08-23T21:41:13.438Z,26.63
2023-08-23T21:43:40.347Z,26.58
2023-08-23T21:46:07.280Z,26.61
2023-08-23T21:48:34.375Z,26.63
2023-08-23T21:51:01.307Z,26.65
2023-08-23T21:53:28.199Z,26.52
2023-08-23T21:55:56.512Z,26.60
2023-08-23T21:58:29.885Z,26.66
2023-08-23T22:01:04.202Z,26.61
2023-08-23T22:03:39.801Z,26.46
2023-08-23T22:06:12.341Z,26.33
2023-08-23T22:08:46.942Z,26.44
2023-08-23T22:11:15.802Z,26.54
2023-08-23T22:13:43.979Z,26.56
2023-08-23T22:16:11.312Z,26.67
2023-08-23T22:18:38.906Z,26.58
2023-08-23T22:21:08.230Z,26.55
2023-08-23T22:23:35.891Z,26.63
2023-08-23T22:26:04.749Z,26.62
2023-08-23T22:28:32.575Z,26.66
2023-08-23T22:30:59.854Z,26.66
2023-08-23T22:33:27.519Z,26.70
2023-08-23T22:35:57.502Z,26.72
2023-08-23T22:38:25.387Z,26.71
2023-08-23T22:40:52.552Z,26.73
2023-08-23T22:43:19.897Z,26.71
2023-08-23T22:45:47.072Z,26.64
2023-08-23T22:48:14.119Z,26.68
2023-08-23T22:50:41.360Z,26.65
2023-08-23T22:53:08.185Z,26.60
2023-08-23T22:55:35.301Z,26.51
2023-08-23T22:58:02.194Z,26.47
2023-08-23T23:00:29.355Z,26.38
2023-08-23T23:02:58.036Z,26.36
2023-08-23T23:05:25.379Z,26.33
2023-08-23T23:07:52.469Z,26.26
2023-08-23T23:10:22.145Z,26.12
2023-08-23T23:12:49.149Z,25.99
2023-08-23T23:15:16.400Z,25.97
2023-08-23T23:17:43.874Z,25.88
2023-08-23T23:20:14.211Z,25.91
2023-08-23T23:22:41.662Z,25.87
2023-08-23T23:25:09.905Z,25.88
2023-08-23T23:27:37.777Z,25.87
2023-08-23T23:30:06.240Z,25.83
2023-08-23T23:32:34.329Z,25.78
2023-08-23T23:35:01.423Z,25.67
2023-08-23T23:37:28.769Z,25.54
2023-08-23T23:39:55.825Z,25.46
2023-08-23T23:42:22.949Z,25.38
2023-08-23T23:44:49.945Z,25.27
2023-08-23T23:47:16.938Z,25.22
2023-08-23T23:49:43.838Z,25.21
2023-08-23T23:52:10.825Z,25.11
2023-08-23T23:54:37.719Z,25.03
2023-08-23T23:57:05.887Z,25.01
2023-08-23T23:59:32.802Z,24.97
